Time;durP1;ratioP1;P1;durP2;ratioP2;P2;SDS_P1;SDS_P2;PMS_P1;PMS_P2;Temp;Humidity;BMP_temperature;BMP_pressure;BME280_temperature;BME280_humidity;BME280_pressure;Samples;Min_cycle;Max_cycle;Signal;HPM_P1;HPM_P2
2023/03/02 00:00:38;;;;;;;38.85;13.93;;;1.90;99.90;;;;;;5053284;28;20032;-61
2023/03/02 00:03:05;;;;;;;22.25;11.32;;;2.00;99.90;;;;;;5048187;28;20038;-61
2023/03/02 00:05:32;;;;;;;49.45;20.42;;;2.00;99.90;;;;;;5050855;28;20100;-73
2023/03/02 00:07:59;;;;;;;31.75;14.32;;;2.00;99.90;;;;;;5053317;28;20041;-61
2023/03/02 00:10:25;;;;;;;39.80;16.60;;;2.00;99.90;;;;;;5054440;28;20090;-61
2023/03/02 00:12:51;;;;;;;44.90;17.87;;;2.00;99.90;;;;;;5054343;28;20432;-73
2023/03/02 00:15:17;;;;;;;39.28;14.05;;;1.90;99.90;;;;;;5056017;28;20021;-61
2023/03/02 00:17:43;;;;;;;38.87;15.30;;;1.90;99.90;;;;;;5055649;28;20060;-61
2023/03/02 00:20:10;;;;;;;49.10;17.63;;;1.90;99.90;;;;;;5037957;28;20029;-72
2023/03/02 00:22:37;;;;;;;63.30;22.70;;;1.90;99.90;;;;;;5047511;28;20068;-61
2023/03/02 00:25:04;;;;;;;37.55;14.65;;;1.90;99.90;;;;;;5054472;28;20075;-61
2023/03/02 00:27:30;;;;;;;;;;;1.90;99.90;;;;;;5060601;28;20066;-61
2023/03/02 00:29:56;;;;;;;55.58;21.10;;;1.90;99.90;;;;;;5056888;28;19908;-61
2023/03/02 00:32:23;;;;;;;62.38;21.58;;;1.90;99.90;;;;;;5051809;28;20038;-72
2023/03/02 00:34:49;;;;;;;34.90;12.23;;;2.00;99.90;;;;;;5056530;28;20032;-61
2023/03/02 00:37:15;;;;;;;44.25;15.77;;;1.90;99.90;;;;;;5057245;28;20025;-63
2023/03/02 00:39:41;;;;;;;23.05;10.60;;;1.90;99.90;;;;;;5043864;28;20327;-61
2023/03/02 00:42:07;;;;;;;45.23;18.20;;;2.00;99.90;;;;;;5054824;28;20339;-61
2023/03/02 00:44:33;;;;;;;44.93;15.20;;;1.90;99.90;;;;;;5052297;28;20273;-61
2023/03/02 00:46:59;;;;;;;52.60;17.77;;;2.00;99.90;;;;;;5049743;28;20041;-61
2023/03/02 00:49:25;;;;;;;30.60;12.63;;;2.00;99.90;;;;;;5057383;28;20330;-61
2023/03/02 00:51:51;;;;;;;47.60;16.83;;;2.00;99.90;;;;;;5058560;28;20285;-61
2023/03/02 00:54:17;;;;;;;40.13;15.90;;;2.00;99.90;;;;;;5063457;28;20014;-62
2023/03/02 00:56:43;;;;;;;46.80;16.43;;;1.90;99.90;;;;;;5053587;28;20036;-73
2023/03/02 00:59:27;;;;;;;55.25;22.50;;;1.90;99.90;;;;;;5058651;28;20407;-71
2023/03/02 01:01:58;;;;;;;37.55;14.23;;;1.90;99.90;;;;;;5055215;28;20109;-61
2023/03/02 01:04:31;;;;;;;44.85;16.73;;;1.90;99.90;;;;;;5052987;28;20029;-61
2023/03/02 01:07:00;;;;;;;66.25;22.15;;;1.90;99.90;;;;;;5047248;28;20029;-61
2023/03/02 01:09:26;;;;;;;57.20;18.70;;;1.90;99.90;;;;;;5052730;28;20036;-61
2023/03/02 01:11:52;;;;;;;29.65;11.13;;;1.80;99.90;;;;;;5035138;28;20033;-62
2023/03/02 01:14:18;;;;;;;25.97;11.80;;;1.80;99.90;;;;;;5051009;28;20309;-61
2023/03/02 01:16:46;;;;;;;26.07;10.60;;;1.80;99.90;;;;;;5051749;28;20029;-61
2023/03/02 01:19:12;;;;;;;51.05;21.05;;;1.70;99.90;;;;;;5047923;28;20023;-72
2023/03/02 01:21:39;;;;;;;39.17;13.95;;;1.70;99.90;;;;;;5051957;28;20323;-61
2023/03/02 01:24:05;;;;;;;19.65;8.27;;;1.70;99.90;;;;;;5051336;28;20057;-61
2023/03/02 01:26:31;;;;;;;51.70;18.90;;;1.70;99.90;;;;;;5053329;28;20109;-61
2023/03/02 01:28:57;;;;;;;14.17;6.63;;;1.70;99.90;;;;;;5051263;28;20117;-61
2023/03/02 01:31:25;;;;;;;27.55;9.52;;;1.80;99.90;;;;;;5061019;28;20025;-61
2023/03/02 01:33:51;;;;;;;44.53;18.40;;;1.80;99.90;;;;;;5054942;28;20029;-61
2023/03/02 01:36:18;;;;;;;29.45;11.50;;;1.70;99.90;;;;;;5042560;28;20078;-61
2023/03/02 01:38:43;;;;;;;35.83;15.43;;;1.70;99.90;;;;;;5059327;28;20032;-61
2023/03/02 01:41:10;;;;;;;30.90;13.00;;;1.60;99.90;;;;;;5060368;28;20032;-71
2023/03/02 01:43:36;;;;;;;45.35;16.48;;;1.60;99.90;;;;;;5050986;28;20025;-61
2023/03/02 01:46:24;;;;;;;31.90;11.43;;;1.60;99.90;;;;;;5031827;28;20033;-61
2023/03/02 01:48:59;;;;;;;18.23;7.28;;;1.60;99.90;;;;;;5053530;28;20500;-61
2023/03/02 01:51:27;;;;;;;41.92;16.05;;;1.60;99.90;;;;;;5050491;28;20028;-61
2023/03/02 01:54:03;;;;;;;33.63;13.85;;;1.60;99.90;;;;;;5037215;28;20038;-61
2023/03/02 01:56:35;;;;;;;44.05;16.00;;;1.50;99.90;;;;;;5047982;28;20036;-73
2023/03/02 01:59:07;;;;;;;49.30;18.35;;;1.50;99.90;;;;;;5045707;28;20029;-61
2023/03/02 02:01:36;;;;;;;63.55;20.17;;;1.50;99.90;;;;;;5060987;28;20074;-61
2023/03/02 02:04:03;;;;;;;35.92;14.73;;;1.50;99.90;;;;;;5057816;28;20368;-74
2023/03/02 02:07:00;;;;;;;55.00;21.17;;;1.50;99.90;;;;;;5054865;28;20030;-61
2023/03/02 02:09:27;;;;;;;52.53;17.10;;;1.40;99.90;;;;;;5051194;28;20116;-62
2023/03/02 02:11:53;;;;;;;52.33;18.60;;;1.40;99.90;;;;;;5049864;28;20048;-61
2023/03/02 02:14:19;;;;;;;34.67;11.70;;;1.30;99.90;;;;;;5055284;28;20140;-61
2023/03/02 02:16:45;;;;;;;42.53;15.82;;;1.40;99.90;;;;;;5037266;28;20022;-62
2023/03/02 02:19:28;;;;;;;43.60;15.55;;;1.30;99.90;;;;;;5034548;28;20029;-73
2023/03/02 02:21:54;;;;;;;53.13;20.92;;;1.40;99.90;;;;;;5052196;28;20111;-61
2023/03/02 02:24:48;;;;;;;40.57;16.13;;;1.30;99.90;;;;;;5054346;28;20036;-73
2023/03/02 02:27:14;;;;;;;39.95;13.30;;;1.30;99.90;;;;;;5046841;28;20100;-62
2023/03/02 02:29:45;;;;;;;42.08;14.50;;;1.30;99.90;;;;;;5050540;28;20098;-61
2023/03/02 02:32:42;;;;;;;30.02;12.20;;;1.30;99.90;;;;;;5049284;28;20071;-72
2023/03/02 02:35:20;;;;;;;31.73;12.02;;;1.20;99.90;;;;;;5050274;28;20037;-63
2023/03/02 02:38:00;;;;;;;36.47;13.07;;;1.20;99.90;;;;;;5057318;28;20426;-61
2023/03/02 02:40:47;;;;;;;50.63;19.27;;;1.20;99.90;;;;;;5052316;28;20070;-61
2023/03/02 02:43:16;;;;;;;42.00;14.75;;;1.10;99.90;;;;;;5055518;28;20113;-72
2023/03/02 02:45:42;;;;;;;54.30;18.55;;;1.10;99.90;;;;;;5037113;28;20099;-62
2023/03/02 02:48:15;;;;;;;30.77;9.50;;;1.10;99.90;;;;;;5058609;28;20039;-69
2023/03/02 02:50:43;;;;;;;24.75;9.60;;;1.10;99.90;;;;;;5053257;28;20029;-61
2023/03/02 02:53:13;;;;;;;33.75;13.13;;;1.10;99.90;;;;;;5050420;28;20033;-70
2023/03/02 02:55:41;;;;;;;41.08;15.30;;;1.10;99.90;;;;;;5057130;28;20031;-61
2023/03/02 02:58:24;;;;;;;44.45;14.48;;;1.00;99.90;;;;;;5058075;28;20016;-61
2023/03/02 03:00:50;;;;;;;12.70;5.47;;;1.00;99.90;;;;;;5053925;28;20099;-61
2023/03/02 03:03:35;;;;;;;44.80;16.10;;;1.00;99.90;;;;;;5053282;28;20423;-62
2023/03/02 03:06:07;;;;;;;35.45;13.02;;;1.00;99.90;;;;;;5058458;28;20040;-62
2023/03/02 03:08:42;;;;;;;43.55;15.25;;;1.00;99.90;;;;;;5037331;28;20051;-61
2023/03/02 03:11:10;;;;;;;47.80;18.98;;;1.00;99.90;;;;;;5056232;28;20033;-62
2023/03/02 03:13:38;;;;;;;41.20;16.98;;;0.90;99.90;;;;;;5055448;28;20035;-61
2023/03/02 03:16:08;;;;;;;42.50;17.10;;;0.90;99.90;;;;;;5053844;28;20116;-61
2023/03/02 03:18:34;;;;;;;43.28;16.83;;;1.00;99.90;;;;;;5033886;28;20423;-65
2023/03/02 03:21:00;;;;;;;43.78;13.88;;;0.90;99.90;;;;;;5055079;28;20037;-61
2023/03/02 03:23:26;;;;;;;16.63;7.77;;;0.90;99.90;;;;;;5056589;28;20055;-61
2023/03/02 03:25:52;;;;;;;40.27;16.03;;;0.90;99.90;;;;;;5061887;28;20056;-61
2023/03/02 03:28:18;;;;;;;38.33;13.70;;;0.80;99.90;;;;;;5061614;28;20032;-61
2023/03/02 03:30:44;;;;;;;18.97;8.00;;;0.80;99.90;;;;;;5056048;28;20309;-61
2023/03/02 03:33:10;;;;;;;34.80;13.70;;;0.80;99.90;;;;;;5054375;28;20036;-72
2023/03/02 03:35:37;;;;;;;40.30;14.38;;;0.80;99.90;;;;;;5040810;28;20327;-62
2023/03/02 03:38:06;;;;;;;36.15;11.45;;;0.70;99.90;;;;;;5059482;28;20021;-61
2023/03/02 03:40:33;;;;;;;41.90;15.38;;;0.80;99.90;;;;;;5056381;28;20029;-61
2023/03/02 03:43:03;;;;;;;40.50;14.13;;;0.80;99.90;;;;;;5052466;28;20323;-61
2023/03/02 03:45:29;;;;;;;34.40;14.35;;;0.80;99.90;;;;;;5052443;28;20525;-61
2023/03/02 03:47:56;;;;;;;26.70;10.90;;;0.70;99.90;;;;;;5068588;28;20028;-61
2023/03/02 03:50:22;;;;;;;39.47;16.83;;;0.80;99.90;;;;;;5068175;28;20037;-61
2023/03/02 03:52:48;;;;;;;28.98;11.60;;;0.80;99.90;;;;;;5060257;28;20090;-61
2023/03/02 03:55:14;;;;;;;51.80;17.50;;;0.80;99.90;;;;;;5051434;28;20025;-66
2023/03/02 03:57:40;;;;;;;31.48;12.30;;;0.90;99.90;;;;;;5056371;28;20095;-61
2023/03/02 04:00:09;;;;;;;39.08;12.90;;;0.90;99.90;;;;;;5057647;28;20056;-61
2023/03/02 04:02:36;;;;;;;42.22;16.55;;;0.90;99.90;;;;;;5049754;28;20551;-61
2023/03/02 04:05:06;;;;;;;22.92;10.23;;;0.90;99.90;;;;;;5057505;28;20033;-71
2023/03/02 04:07:33;;;;;;;35.40;15.27;;;0.80;99.90;;;;;;5056129;28;20082;-61
2023/03/02 04:10:05;;;;;;;39.85;15.23;;;0.80;99.90;;;;;;5052371;28;20074;-61
2023/03/02 04:12:33;;;;;;;33.25;13.15;;;0.70;99.90;;;;;;5050661;28;20461;-61
2023/03/02 04:14:59;;;;;;;39.60;14.15;;;0.70;99.90;;;;;;5054681;28;20029;-61
2023/03/02 04:17:26;;;;;;;50.00;15.32;;;0.70;99.90;;;;;;5043787;28;20021;-61
2023/03/02 04:19:52;;;;;;;38.25;12.90;;;0.60;99.90;;;;;;5052421;28;20029;-61
2023/03/02 04:22:18;;;;;;;37.00;14.73;;;0.60;99.90;;;;;;5053028;28;20090;-62
2023/03/02 04:24:46;;;;;;;41.13;16.95;;;0.60;99.90;;;;;;5053524;28;20039;-62
2023/03/02 04:27:12;;;;;;;39.45;14.95;;;0.60;99.90;;;;;;5054390;28;20033;-72
2023/03/02 04:29:39;;;;;;;33.67;10.82;;;0.50;99.90;;;;;;5050080;28;20071;-61
2023/03/02 04:32:06;;;;;;;39.88;14.23;;;0.60;99.90;;;;;;5044861;28;20071;-61
2023/03/02 04:34:32;;;;;;;19.23;6.90;;;0.60;99.90;;;;;;5049892;28;20036;-61
2023/03/02 04:36:58;;;;;;;17.15;8.38;;;0.60;99.90;;;;;;5053564;28;20324;-61
2023/03/02 04:39:25;;;;;;;25.17;9.07;;;0.60;99.90;;;;;;5055631;28;20423;-61
2023/03/02 04:41:51;;;;;;;33.38;12.73;;;0.70;99.90;;;;;;5049051;28;20055;-62
2023/03/02 04:44:18;;;;;;;29.50;11.13;;;0.70;99.90;;;;;;5053601;28;20021;-61
2023/03/02 04:46:45;;;;;;;42.25;15.68;;;0.70;99.90;;;;;;5046000;28;20112;-61
2023/03/02 04:49:13;;;;;;;45.47;18.55;;;0.70;99.90;;;;;;5057782;28;20094;-72
2023/03/02 04:51:41;;;;;;;43.50;15.98;;;0.70;99.90;;;;;;5051739;28;20514;-61
2023/03/02 04:54:15;;;;;;;32.72;10.20;;;0.70;99.90;;;;;;5052018;28;20057;-61
2023/03/02 04:56:41;;;;;;;30.75;11.95;;;0.60;99.90;;;;;;5054037;28;20028;-61
2023/03/02 04:59:07;;;;;;;38.70;13.37;;;0.60;99.90;;;;;;5052206;28;20416;-61
2023/03/02 05:01:33;;;;;;;38.97;14.40;;;0.60;99.90;;;;;;5053885;28;20025;-61
2023/03/02 05:03:59;;;;;;;40.47;15.67;;;0.60;99.90;;;;;;5054331;28;20443;-61
2023/03/02 05:06:25;;;;;;;23.60;9.90;;;0.50;99.90;;;;;;5039494;28;20273;-61
2023/03/02 05:08:52;;;;;;;33.40;11.20;;;0.60;99.90;;;;;;5051697;28;20029;-61
2023/03/02 05:11:21;;;;;;;;;;;0.60;99.90;;;;;;5057668;28;20315;-61
2023/03/02 05:13:51;;;;;;;38.33;12.90;;;0.60;99.90;;;;;;5053012;28;19924;-61
2023/03/02 05:16:18;;;;;;;36.45;13.23;;;0.60;99.90;;;;;;5044702;28;20104;-61
2023/03/02 05:18:44;;;;;;;29.83;11.10;;;0.50;99.90;;;;;;5052685;28;20037;-61
2023/03/02 05:21:11;;;;;;;25.85;8.82;;;0.50;99.90;;;;;;5053201;28;20036;-72
2023/03/02 05:23:37;;;;;;;40.13;14.75;;;0.60;99.90;;;;;;5044745;28;20028;-61
2023/03/02 05:26:03;;;;;;;26.67;10.43;;;0.50;99.90;;;;;;5054003;28;20048;-61
2023/03/02 05:28:29;;;;;;;26.07;8.83;;;0.50;99.90;;;;;;5051319;28;20037;-61
2023/03/02 05:30:54;;;;;;;29.37;13.00;;;0.50;99.90;;;;;;5054862;28;20033;-61
2023/03/02 05:33:21;;;;;;;18.67;8.37;;;0.40;99.90;;;;;;5054223;28;20045;-61
2023/03/02 05:35:47;;;;;;;34.00;13.35;;;0.40;99.90;;;;;;5058615;28;20020;-62
2023/03/02 05:38:13;;;;;;;18.98;7.93;;;0.40;99.90;;;;;;5058234;28;20432;-73
2023/03/02 05:40:41;;;;;;;38.50;14.35;;;0.40;99.90;;;;;;5051478;28;20052;-73
2023/03/02 05:43:08;;;;;;;48.05;15.40;;;0.40;99.90;;;;;;5056433;28;20336;-61
2023/03/02 05:45:34;;;;;;;;;;;0.40;99.90;;;;;;5062328;28;20031;-61
2023/03/02 05:48:00;;;;;;;;;;;0.40;99.90;;;;;;5060975;28;19916;-62
2023/03/02 05:50:26;;;;;;;39.67;13.85;;;0.40;99.90;;;;;;5056914;28;19915;-62
2023/03/02 05:52:52;;;;;;;31.48;11.55;;;0.50;99.90;;;;;;5055658;28;20091;-61
2023/03/02 05:55:18;;;;;;;34.73;13.60;;;0.50;99.90;;;;;;5054405;28;20024;-61
2023/03/02 05:57:45;;;;;;;41.60;14.77;;;0.40;99.90;;;;;;5059527;28;20286;-64
2023/03/02 06:00:12;;;;;;;33.50;12.20;;;0.50;99.90;;;;;;5052250;28;20017;-73
2023/03/02 06:02:39;;;;;;;33.05;12.57;;;0.40;99.90;;;;;;5055170;28;20494;-61
2023/03/02 06:05:12;;;;;;;42.30;17.65;;;0.50;99.90;;;;;;5054150;28;20025;-61
2023/03/02 06:07:38;;;;;;;47.85;17.13;;;0.50;99.90;;;;;;5042961;28;20076;-61
2023/03/02 06:10:06;;;;;;;47.85;13.00;;;0.50;99.90;;;;;;5057802;28;20063;-61
2023/03/02 06:12:32;;;;;;;45.90;16.55;;;0.50;99.90;;;;;;5051674;28;20112;-61
2023/03/02 06:14:58;;;;;;;38.03;12.65;;;0.50;99.90;;;;;;5055746;28;20025;-61
2023/03/02 06:17:25;;;;;;;36.37;13.00;;;0.40;99.90;;;;;;5043113;28;20048;-71
2023/03/02 06:19:51;;;;;;;25.70;9.13;;;0.40;99.90;;;;;;5031853;28;20328;-61
2023/03/02 06:22:17;;;;;;;38.00;14.43;;;0.40;99.90;;;;;;5044770;28;20031;-61
2023/03/02 06:24:43;;;;;;;48.63;18.35;;;0.50;99.90;;;;;;5047060;28;20357;-61
2023/03/02 06:27:10;;;;;;;23.60;7.63;;;0.40;99.90;;;;;;5050116;28;20371;-72
2023/03/02 06:29:36;;;;;;;50.22;15.57;;;0.40;99.90;;;;;;5047489;28;20041;-60
2023/03/02 06:32:02;;;;;;;32.40;12.20;;;0.40;99.90;;;;;;5055153;28;20044;-73
2023/03/02 06:34:28;;;;;;;50.95;17.80;;;0.40;99.90;;;;;;5055045;28;20089;-61
2023/03/02 06:36:54;;;;;;;38.63;14.70;;;0.40;99.90;;;;;;5053967;28;20041;-61
2023/03/02 06:39:21;;;;;;;39.17;15.45;;;0.40;99.90;;;;;;5052321;28;20029;-61
2023/03/02 06:41:47;;;;;;;43.13;16.35;;;0.40;99.90;;;;;;5055931;28;20103;-61
2023/03/02 06:44:15;;;;;;;29.05;11.60;;;0.50;99.90;;;;;;5053383;28;20024;-73
2023/03/02 06:46:41;;;;;;;25.73;9.98;;;0.50;99.90;;;;;;5052391;28;20025;-61
2023/03/02 06:49:09;;;;;;;26.13;9.80;;;0.50;99.90;;;;;;5054962;28;20025;-72
2023/03/02 06:51:35;;;;;;;33.47;13.48;;;0.50;99.90;;;;;;5053120;28;20080;-61
2023/03/02 06:54:01;;;;;;;49.70;15.63;;;0.50;99.90;;;;;;5055712;28;20051;-61
2023/03/02 06:56:27;;;;;;;26.23;10.55;;;0.50;99.90;;;;;;5048005;28;20048;-60
2023/03/02 06:58:53;;;;;;;41.78;15.65;;;0.50;99.90;;;;;;5048615;28;20026;-61
2023/03/02 07:01:19;;;;;;;25.13;10.47;;;0.60;99.90;;;;;;5053329;28;20032;-60
2023/03/02 07:03:45;;;;;;;44.13;16.27;;;0.60;99.90;;;;;;5053072;28;20039;-61
2023/03/02 07:06:12;;;;;;;47.57;18.13;;;0.60;99.90;;;;;;5057377;28;20116;-72
2023/03/02 07:08:38;;;;;;;51.70;15.60;;;0.60;99.90;;;;;;5051229;28;20041;-61
2023/03/02 07:11:10;;;;;;;38.10;13.68;;;0.70;99.90;;;;;;5051209;28;20039;-60
2023/03/02 07:13:37;;;;;;;30.42;11.25;;;0.70;99.90;;;;;;5043231;28;20068;-61
2023/03/02 07:16:10;;;;;;;46.20;15.98;;;0.70;99.90;;;;;;5047829;28;20029;-61
2023/03/02 07:18:37;;;;;;;41.35;14.98;;;0.90;99.90;;;;;;5048479;28;20033;-61
2023/03/02 07:21:04;;;;;;;50.28;16.75;;;0.90;99.90;;;;;;5048913;28;20027;-61
2023/03/02 07:23:30;;;;;;;42.50;17.00;;;1.10;99.90;;;;;;5049558;28;20098;-62
2023/03/02 07:25:56;;;;;;;15.68;6.85;;;1.30;99.90;;;;;;5047464;28;20033;-61
2023/03/02 07:28:24;;;;;;;34.17;13.48;;;1.40;99.90;;;;;;5037146;28;20064;-61
2023/03/02 07:30:51;;;;;;;27.98;12.90;;;1.40;99.90;;;;;;5049838;28;20047;-72
2023/03/02 07:33:18;;;;;;;47.38;17.15;;;1.50;99.90;;;;;;5029445;28;20029;-61
2023/03/02 07:35:44;;;;;;;;;;;1.40;99.90;;;;;;5043424;28;20036;-61
2023/03/02 07:38:10;;;;;;;29.65;12.27;;;1.30;99.90;;;;;;5049921;28;19916;-70
2023/03/02 07:40:42;;;;;;;30.63;10.77;;;1.40;99.90;;;;;;5049951;28;20320;-61
2023/03/02 07:43:09;;;;;;;42.90;15.85;;;1.50;99.90;;;;;;5028110;28;20035;-61
2023/03/02 07:45:36;;;;;;;9.90;6.35;;;2.00;99.90;;;;;;5045910;28;20041;-61
2023/03/02 07:48:02;;;;;;;36.65;14.52;;;2.50;99.90;;;;;;5057254;28;20043;-61
2023/03/02 07:50:28;;;;;;;42.10;14.63;;;3.00;99.90;;;;;;5032272;28;20489;-61
2023/03/02 07:52:54;;;;;;;15.48;6.35;;;3.20;99.90;;;;;;5042800;28;20335;-60
2023/03/02 07:55:20;;;;;;;29.00;12.33;;;3.40;99.90;;;;;;5050171;28;20112;-61
2023/03/02 07:57:46;;;;;;;38.77;16.20;;;3.60;99.90;;;;;;5034151;28;20033;-61
2023/03/02 08:00:12;;;;;;;39.93;15.37;;;4.00;99.90;;;;;;5051063;28;20025;-72
2023/03/02 08:02:39;;;;;;;38.50;16.17;;;4.50;99.90;;;;;;5037899;28;20045;-61
2023/03/02 08:05:06;;;;;;;39.55;15.70;;;4.60;99.90;;;;;;5047806;28;20030;-62
2023/03/02 08:07:32;;;;;;;15.68;7.45;;;4.80;99.90;;;;;;5053463;28;20040;-61
2023/03/02 08:09:59;;;;;;;43.67;14.80;;;4.40;99.90;;;;;;5045337;28;20037;-61
2023/03/02 08:12:26;;;;;;;;;;;4.20;99.90;;;;;;5057556;28;20369;-61
2023/03/02 08:14:51;;;;;;;26.25;7.30;;;4.30;99.90;;;;;;5046751;28;19913;-61
2023/03/02 08:17:18;;;;;;;15.13;5.47;;;4.10;99.90;;;;;;5053329;28;20078;-61
2023/03/02 08:19:44;;;;;;;33.65;13.52;;;3.90;99.90;;;;;;5049763;28;20033;-61
2023/03/02 08:22:10;;;;;;;30.23;12.65;;;4.20;99.90;;;;;;5053827;28;20028;-72
2023/03/02 08:24:36;;;;;;;21.23;10.00;;;4.20;99.90;;;;;;5044618;28;20044;-61
2023/03/02 08:27:03;;;;;;;28.88;10.25;;;4.60;99.90;;;;;;5050850;28;20355;-61
2023/03/02 08:29:29;;;;;;;31.70;11.02;;;4.40;99.90;;;;;;5054475;28;20056;-62
2023/03/02 08:31:55;;;;;;;28.75;10.25;;;4.40;99.90;;;;;;5048621;28;20044;-61
2023/03/02 08:34:21;;;;;;;21.40;7.50;;;4.00;99.90;;;;;;5049478;28;20021;-61
2023/03/02 08:36:47;;;;;;;24.63;10.43;;;3.60;99.90;;;;;;5028216;28;20400;-61
2023/03/02 08:39:13;;;;;;;22.57;9.53;;;3.90;99.90;;;;;;5050370;28;20078;-63
2023/03/02 08:41:38;;;;;;;31.53;12.03;;;4.30;99.90;;;;;;5052989;28;20112;-61
2023/03/02 08:44:04;;;;;;;20.83;8.27;;;4.30;99.90;;;;;;5024206;28;20028;-61
2023/03/02 08:46:30;;;;;;;30.43;11.57;;;4.10;99.90;;;;;;5042674;28;20033;-61
2023/03/02 08:48:56;;;;;;;19.47;8.77;;;3.80;99.90;;;;;;5058973;28;20608;-61
2023/03/02 08:51:24;;;;;;;29.77;13.50;;;3.50;99.90;;;;;;5051849;28;20033;-73
2023/03/02 08:53:53;;;;;;;24.45;10.10;;;3.10;99.90;;;;;;5054369;28;20067;-61
2023/03/02 08:56:28;;;;;;;15.80;7.03;;;2.90;99.90;;;;;;5063549;28;20027;-72
2023/03/02 08:58:57;;;;;;;10.75;5.15;;;3.00;99.90;;;;;;5054965;28;20032;-61
2023/03/02 09:01:27;;;;;;;22.50;8.18;;;3.00;99.90;;;;;;5052378;28;20087;-61
2023/03/02 09:03:53;;;;;;;17.70;7.95;;;2.90;99.90;;;;;;5059975;28;20435;-61
2023/03/02 09:06:19;;;;;;;28.17;11.40;;;2.90;99.90;;;;;;5062921;28;20035;-61
2023/03/02 09:08:47;;;;;;;23.52;10.07;;;2.80;99.90;;;;;;5057475;28;20312;-61
2023/03/02 09:11:13;;;;;;;29.15;10.38;;;2.90;99.90;;;;;;5057693;28;20037;-72
2023/03/02 09:13:39;;;;;;;28.45;9.82;;;3.40;99.90;;;;;;5059350;28;20349;-61
2023/03/02 09:16:07;;;;;;;13.30;5.88;;;4.10;99.90;;;;;;5052377;28;20107;-62
2023/03/02 09:18:33;;;;;;;28.48;10.68;;;4.10;99.90;;;;;;5054538;28;20032;-62
2023/03/02 09:20:59;;;;;;;29.98;13.00;;;4.40;99.90;;;;;;5036548;28;20021;-62
2023/03/02 09:23:27;;;;;;;37.55;14.02;;;4.90;99.90;;;;;;5058805;28;20040;-72
2023/03/02 09:25:53;;;;;;;36.53;14.52;;;4.70;99.90;;;;;;5056572;28;20128;-61
2023/03/02 09:28:22;;;;;;;35.90;12.65;;;4.50;99.90;;;;;;5049933;28;20041;-62
2023/03/02 09:30:51;;;;;;;24.50;11.70;;;4.20;99.90;;;;;;5049597;28;20028;-61
2023/03/02 09:33:17;;;;;;;40.15;14.57;;;4.50;99.90;;;;;;5053796;28;20413;-62
2023/03/02 09:35:44;;;;;;;29.75;12.50;;;5.00;99.90;;;;;;5039648;28;20327;-61
2023/03/02 09:38:14;;;;;;;;;;;5.10;99.90;;;;;;5054174;28;20033;-61
2023/03/02 09:40:47;;;;;;;32.28;10.82;;;5.10;99.90;;;;;;5053815;28;19923;-61
2023/03/02 09:43:19;;;;;;;29.08;13.18;;;5.20;99.90;;;;;;5052919;28;20431;-72
2023/03/02 09:46:08;;;;;;;30.00;11.68;;;5.30;99.90;;;;;;5061864;28;20039;-61
2023/03/02 09:48:53;;;;;;;32.88;12.80;;;5.20;99.90;;;;;;5060403;28;20051;-61
2023/03/02 09:51:31;;;;;;;26.60;9.20;;;5.30;99.90;;;;;;5041537;28;20025;-72
2023/03/02 09:54:12;;;;;;;9.32;4.65;;;5.50;99.90;;;;;;5062777;28;20035;-61
2023/03/02 09:56:57;;;;;;;26.75;9.25;;;5.00;99.90;;;;;;5058520;28;20024;-61
2023/03/02 09:59:37;;;;;;;29.37;13.40;;;4.60;99.90;;;;;;5052183;28;20017;-73
2023/03/02 10:02:27;;;;;;;23.60;8.73;;;4.60;99.90;;;;;;5057199;28;20302;-62
2023/03/02 10:04:59;;;;;;;37.67;13.82;;;4.50;99.90;;;;;;5059627;28;20036;-62
2023/03/02 10:07:34;;;;;;;35.72;14.05;;;4.30;99.90;;;;;;5054013;28;20044;-61
2023/03/02 10:10:26;;;;;;;24.15;10.48;;;4.60;99.90;;;;;;5055619;28;20029;-61
2023/03/02 10:12:58;;;;;;;34.63;12.73;;;4.20;99.90;;;;;;5044807;28;20120;-61
2023/03/02 10:15:58;;;;;;;30.30;14.13;;;4.30;99.90;;;;;;5043614;28;20057;-75
2023/03/02 10:18:44;;;;;;;31.50;12.98;;;4.40;99.90;;;;;;5019961;28;20037;-73
2023/03/02 10:21:12;;;;;;;28.45;12.38;;;4.30;99.90;;;;;;5052883;28;20075;-73
2023/03/02 10:23:52;;;;;;;23.48;5.78;;;4.60;99.90;;;;;;5050206;28;20354;-73
2023/03/02 10:26:22;;;;;;;32.85;12.57;;;4.60;99.90;;;;;;5051094;28;20108;-72
2023/03/02 10:28:55;;;;;;;30.40;12.50;;;4.80;99.90;;;;;;5057893;28;20102;-61
2023/03/02 10:31:28;;;;;;;30.88;13.25;;;5.20;99.90;;;;;;5051592;28;20036;-73
2023/03/02 10:33:55;;;;;;;30.60;13.18;;;5.50;99.90;;;;;;5053812;28;20327;-62
2023/03/02 10:36:27;;;;;;;29.60;12.77;;;5.70;99.90;;;;;;5046070;28;20091;-62
2023/03/02 10:38:54;;;;;;;21.52;9.80;;;5.70;99.90;;;;;;5050961;28;20048;-74
2023/03/02 10:41:50;;;;;;;25.50;10.50;;;5.60;99.90;;;;;;5050657;28;20045;-62
2023/03/02 10:44:38;;;;;;;31.20;11.80;;;5.20;99.90;;;;;;5012358;28;20806;-62
2023/03/02 10:47:06;;;;;;;32.35;12.85;;;4.80;99.90;;;;;;5045779;28;20032;-61
2023/03/02 10:49:40;;;;;;;19.73;10.00;;;4.90;99.90;;;;;;5044665;28;20021;-62
2023/03/02 10:52:16;;;;;;;18.73;9.15;;;4.80;99.90;;;;;;5042166;28;20043;-62
2023/03/02 10:54:42;;;;;;;23.65;9.73;;;4.80;99.90;;;;;;5052156;28;20036;-61
2023/03/02 10:57:27;;;;;;;26.40;10.90;;;4.80;99.90;;;;;;5048554;28;20043;-62
2023/03/02 10:59:58;;;;;;;25.88;11.32;;;4.80;99.90;;;;;;5051967;28;20032;-62
2023/03/02 11:02:26;;;;;;;21.55;10.00;;;4.70;99.90;;;;;;5051487;28;20021;-74
2023/03/02 11:05:32;;;;;;;27.70;11.32;;;4.80;99.90;;;;;;5043587;28;20076;-62
2023/03/02 11:07:59;;;;;;;23.73;9.10;;;4.90;99.90;;;;;;5051704;28;20029;-62
2023/03/02 11:10:33;;;;;;;;;;;5.00;99.90;;;;;;5042556;28;20036;-62
2023/03/02 11:12:59;;;;;;;23.63;8.85;;;5.00;99.90;;;;;;5041932;28;19916;-61
2023/03/02 11:15:31;;;;;;;28.40;9.30;;;5.10;99.90;;;;;;5043908;28;20440;-62
2023/03/02 11:18:25;;;;;;;8.77;5.63;;;5.20;99.90;;;;;;5042971;28;20032;-61
2023/03/02 11:21:19;;;;;;;23.55;10.70;;;5.30;99.90;;;;;;5031714;28;20045;-62
2023/03/02 11:24:03;;;;;;;25.55;10.20;;;5.20;99.90;;;;;;5038982;28;20042;-63
2023/03/02 11:26:43;;;;;;;9.38;5.20;;;5.30;99.90;;;;;;5047364;28;20071;-61
2023/03/02 11:29:29;;;;;;;26.95;10.30;;;5.40;99.90;;;;;;5046268;28;20309;-72
2023/03/02 11:32:07;;;;;;;25.33;10.40;;;5.50;99.90;;;;;;5049955;28;20029;-61
2023/03/02 11:35:01;;;;;;;25.27;12.27;;;5.60;99.90;;;;;;5035280;28;20035;-62
2023/03/02 11:37:37;;;;;;;28.17;10.32;;;5.80;99.90;;;;;;5044873;28;20100;-62
2023/03/02 11:40:17;;;;;;;25.30;11.85;;;5.80;99.90;;;;;;5054644;28;20191;-74
2023/03/02 11:42:44;;;;;;;25.05;10.30;;;5.90;99.90;;;;;;5051905;28;20068;-72
2023/03/02 11:45:13;;;;;;;26.83;9.50;;;5.90;99.90;;;;;;5036708;28;20040;-74
2023/03/02 11:47:51;;;;;;;19.35;7.20;;;6.00;99.90;;;;;;5051368;28;20761;-62
2023/03/02 11:50:18;;;;;;;12.85;5.70;;;6.00;99.90;;;;;;5051594;28;20021;-62
2023/03/02 11:52:50;;;;;;;20.35;8.18;;;6.10;99.90;;;;;;5046982;28;20292;-74
2023/03/02 11:55:16;;;;;;;29.00;11.90;;;6.00;99.90;;;;;;5052849;28;20028;-62
2023/03/02 11:57:49;;;;;;;25.45;10.52;;;6.10;99.90;;;;;;5050592;28;20025;-62
2023/03/02 12:00:32;;;;;;;25.45;10.75;;;6.20;99.90;;;;;;5041649;28;20032;-64
2023/03/02 12:03:09;;;;;;;20.13;7.28;;;6.40;99.90;;;;;;5045905;28;20035;-62
2023/03/02 12:05:38;;;;;;;23.08;11.07;;;6.50;99.90;;;;;;5056118;28;20423;-63
2023/03/02 12:08:26;;;;;;;27.75;10.85;;;6.70;99.90;;;;;;5056963;28;20040;-62
2023/03/02 12:10:59;;;;;;;16.48;7.97;;;6.80;99.90;;;;;;5056007;28;21225;-62
2023/03/02 12:13:39;;;;;;;27.23;10.02;;;7.00;99.90;;;;;;5048348;28;20033;-63
2023/03/02 12:16:22;;;;;;;26.95;10.65;;;7.00;99.90;;;;;;5053321;28;20052;-74
2023/03/02 12:18:52;;;;;;;28.55;11.93;;;6.80;99.90;;;;;;5048280;28;20053;-73
2023/03/02 12:21:22;;;;;;;11.77;4.78;;;6.60;99.90;;;;;;5050949;28;20025;-74
2023/03/02 12:23:50;;;;;;;32.97;10.18;;;6.60;99.90;;;;;;5053657;28;20040;-74
2023/03/02 12:26:19;;;;;;;26.80;10.07;;;6.50;99.90;;;;;;5058635;28;20021;-62
2023/03/02 12:29:09;;;;;;;19.48;9.65;;;6.50;99.90;;;;;;5051923;28;20481;-63
2023/03/02 12:31:53;;;;;;;28.20;11.75;;;6.20;99.90;;;;;;5054697;28;20039;-62
2023/03/02 12:34:43;;;;;;;34.03;13.00;;;6.00;99.90;;;;;;5036873;28;20048;-62
2023/03/02 12:37:17;;;;;;;8.90;4.90;;;6.00;99.90;;;;;;5048043;28;20079;-74
2023/03/02 12:40:20;;;;;;;16.02;6.05;;;6.10;99.90;;;;;;5052701;28;20489;-74
2023/03/02 12:43:19;;;;;;;6.57;3.55;;;6.10;99.90;;;;;;5039619;28;20029;-61
2023/03/02 12:46:22;;;;;;;21.05;8.70;;;6.00;99.90;;;;;;5016454;28;20056;-62
2023/03/02 12:49:12;;;;;;;17.25;5.40;;;6.00;99.90;;;;;;5045454;28;20057;-62
2023/03/02 12:51:44;;;;;;;8.82;4.63;;;5.90;99.90;;;;;;5049832;28;20036;-62
2023/03/02 12:54:15;;;;;;;9.73;4.97;;;6.00;99.90;;;;;;5046739;28;20711;-62
2023/03/02 12:56:41;;;;;;;15.52;6.95;;;5.80;99.90;;;;;;5047613;28;20036;-62